Time;durP1;ratioP1;P1;durP2;ratioP2;P2;SDS_P1;SDS_P2;PMS_P1;PMS_P2;Temp;Humidity;BMP_temperature;BMP_pressure;BME280_temperature;BME280_humidity;BME280_pressure;Samples;Min_cycle;Max_cycle;Signal;HPM_P1;HPM_P2
2021/06/22 00:03:21;;;;;;;1999.90;999.90;;;17.70;99.90;;;;;;5085623;28;20469;-82
2021/06/22 00:09:12;;;;;;;1999.90;999.90;;;17.50;99.90;;;;;;4982648;28;20443;-81
2021/06/22 00:12:19;;;;;;;1999.90;999.90;;;17.50;99.90;;;;;;5017959;28;20393;-80
2021/06/22 00:18:47;;;;;;;1999.90;999.90;;;17.60;99.90;;;;;;5029170;28;20398;-81
2021/06/22 00:21:18;;;;;;;1999.90;999.90;;;17.70;99.90;;;;;;5095005;28;20405;-79
2021/06/22 00:24:23;;;;;;;;;;;;;;;;;;;;;
2021/06/22 00:28:10;;;;;;;1999.90;999.90;;;17.60;99.90;;;;;;5103326;28;20508;-80
2021/06/22 00:30:37;;;;;;;;;;;;;;;;;;;;;
2021/06/22 00:36:41;;;;;;;1999.90;999.90;;;17.50;99.90;;;;;;5102918;28;20834;-81
2021/06/22 00:45:26;;;;;;;1999.90;999.90;;;17.40;99.90;;;;;;5040757;28;20411;-81
2021/06/22 00:49:00;;;;;;;1999.90;999.90;;;17.50;99.90;;;;;;5041181;28;20424;-81
2021/06/22 00:51:36;;;;;;;1999.90;999.90;;;17.30;99.90;;;;;;5038226;28;20400;-80
2021/06/22 00:54:59;;;;;;;1999.90;999.90;;;17.40;99.90;;;;;;5040661;28;20381;-81
2021/06/22 00:58:17;;;;;;;1999.90;999.90;;;17.40;99.90;;;;;;5002861;28;20409;-81
2021/06/22 01:01:05;;;;;;;1999.90;999.90;;;17.40;99.90;;;;;;5040592;28;20429;-80
2021/06/22 01:03:46;;;;;;;1999.90;999.90;;;17.30;99.90;;;;;;5041761;28;20474;-81
2021/06/22 01:06:55;;;;;;;1999.90;999.90;;;17.20;99.90;;;;;;5084108;28;20487;-81
2021/06/22 01:13:16;;;;;;;1999.90;999.90;;;17.20;99.90;;;;;;5041338;28;20401;-82
2021/06/22 01:16:41;;;;;;;1999.90;999.90;;;17.20;99.90;;;;;;5041214;28;20424;-82
2021/06/22 01:22:30;;;;;;;1999.90;999.90;;;17.20;99.90;;;;;;5040179;28;20542;-81
2021/06/22 01:28:49;;;;;;;1999.90;999.90;;;17.20;99.90;;;;;;4975489;28;20451;-82
2021/06/22 01:39:04;;;;;;;;;;;;;;;;;;;;;
2021/06/22 01:48:44;;;;;;;1999.90;999.90;;;16.60;99.90;;;;;;4991295;28;20453;-81
2021/06/22 01:51:38;;;;;;;1999.90;999.90;;;16.70;99.90;;;;;;5003008;28;20404;-81
2021/06/22 01:55:09;;;;;;;;;;;;;;;;;;;;;
2021/06/22 02:04:27;;;;;;;1999.90;999.90;;;16.60;99.90;;;;;;5160832;22;20489;-80
2021/06/22 02:06:53;;;;;;;1999.90;999.90;;;16.50;99.90;;;;;;5098575;28;20445;-80
2021/06/22 02:09:19;;;;;;;1999.90;999.90;;;16.60;99.90;;;;;;5099481;28;20424;-80
2021/06/22 02:11:44;;;;;;;1999.90;999.90;;;16.70;99.90;;;;;;5099413;28;20168;-80
2021/06/22 02:14:10;;;;;;;1999.90;999.90;;;16.80;99.90;;;;;;5098770;28;20163;-79
2021/06/22 02:16:35;;;;;;;1999.90;999.90;;;16.80;99.90;;;;;;5098595;28;20245;-80
2021/06/22 02:19:01;;;;;;;1999.90;999.90;;;16.80;99.90;;;;;;5098752;28;20183;-80
2021/06/22 02:21:27;;;;;;;1999.90;999.90;;;16.80;99.90;;;;;;5099208;28;20166;-80
2021/06/22 02:23:52;;;;;;;1999.90;999.90;;;16.90;99.90;;;;;;5097075;28;20539;-80
2021/06/22 02:26:18;;;;;;;1999.90;999.90;;;16.90;99.90;;;;;;5097050;28;20185;-80
2021/06/22 02:28:44;;;;;;;1999.90;999.90;;;16.90;99.90;;;;;;5097004;28;20206;-80
2021/06/22 02:31:10;;;;;;;1999.90;999.90;;;16.80;99.90;;;;;;5098496;28;20159;-80
2021/06/22 02:33:35;;;;;;;1999.90;999.90;;;16.80;99.90;;;;;;5098350;28;20635;-80
2021/06/22 02:36:01;;;;;;;1999.90;999.90;;;16.80;99.90;;;;;;5098451;28;20170;-80
2021/06/22 02:38:27;;;;;;;1999.90;999.90;;;16.90;99.90;;;;;;5097952;28;20557;-80
2021/06/22 02:40:53;;;;;;;1999.90;999.90;;;16.80;99.90;;;;;;5098176;28;20243;-80
2021/06/22 02:43:19;;;;;;;1999.90;999.90;;;16.80;99.90;;;;;;5098789;28;20618;-80
2021/06/22 02:45:44;;;;;;;1999.90;999.90;;;16.80;99.90;;;;;;5098356;28;20424;-80
2021/06/22 02:48:11;;;;;;;1999.90;999.90;;;16.70;99.90;;;;;;5098048;28;20947;-80
2021/06/22 02:50:39;;;;;;;1999.90;999.90;;;16.70;99.90;;;;;;5096434;28;20242;-80
2021/06/22 02:53:05;;;;;;;1999.90;999.90;;;16.70;99.90;;;;;;5096884;28;20413;-80
2021/06/22 02:55:31;;;;;;;1999.90;999.90;;;16.80;99.90;;;;;;5097799;28;20401;-80
2021/06/22 02:57:57;;;;;;;1999.90;999.90;;;16.70;99.90;;;;;;5097846;28;20394;-80
2021/06/22 03:00:26;;;;;;;1999.90;999.90;;;16.70;99.90;;;;;;5097947;28;20266;-80
2021/06/22 03:02:52;;;;;;;1999.90;999.90;;;16.70;99.90;;;;;;5097656;28;20420;-80
2021/06/22 03:05:19;;;;;;;1999.90;999.90;;;16.70;99.90;;;;;;5097919;28;20467;-80
2021/06/22 03:07:45;;;;;;;1999.90;999.90;;;16.70;99.90;;;;;;5097616;28;20539;-80
2021/06/22 03:10:13;;;;;;;1999.90;999.90;;;16.60;99.90;;;;;;5097300;28;20413;-80
2021/06/22 03:12:39;;;;;;;1999.90;999.90;;;16.60;99.90;;;;;;5095970;28;20496;-80
2021/06/22 03:15:09;;;;;;;1999.90;999.90;;;16.70;99.90;;;;;;5097513;28;20434;-80
2021/06/22 03:17:35;;;;;;;1999.90;999.90;;;16.60;99.90;;;;;;5097727;28;20437;-79
2021/06/22 03:20:02;;;;;;;1999.90;999.90;;;16.60;99.90;;;;;;5097123;28;20431;-80
2021/06/22 03:22:27;;;;;;;1999.90;999.90;;;16.50;99.90;;;;;;5097631;28;20986;-80
2021/06/22 03:24:53;;;;;;;1999.90;999.90;;;16.50;99.90;;;;;;5097125;28;20489;-80
2021/06/22 03:27:19;;;;;;;1999.90;999.90;;;16.40;99.90;;;;;;5097133;28;20193;-79
2021/06/22 03:29:45;;;;;;;1999.90;999.90;;;16.40;99.90;;;;;;5097069;28;20178;-80
2021/06/22 03:32:11;;;;;;;1999.90;999.90;;;16.40;99.90;;;;;;5096967;28;20400;-80
2021/06/22 03:34:37;;;;;;;1999.90;999.90;;;16.40;99.90;;;;;;5097073;28;20159;-80
2021/06/22 03:37:03;;;;;;;1999.90;999.90;;;16.40;99.90;;;;;;5095857;28;20174;-80
2021/06/22 03:39:29;;;;;;;1999.90;999.90;;;16.30;99.90;;;;;;5096306;28;20519;-79
2021/06/22 03:41:55;;;;;;;1999.90;999.90;;;16.30;99.90;;;;;;5097739;28;20429;-80
2021/06/22 03:44:21;;;;;;;1999.90;999.90;;;16.20;99.90;;;;;;5097997;28;20403;-80
2021/06/22 03:46:47;;;;;;;1999.90;999.90;;;16.30;99.90;;;;;;5096560;28;20189;-80
2021/06/22 03:49:12;;;;;;;1999.90;999.90;;;16.20;99.90;;;;;;5096254;28;20420;-80
2021/06/22 03:51:38;;;;;;;1999.90;999.90;;;16.20;99.90;;;;;;5097192;28;20203;-80
2021/06/22 03:54:04;;;;;;;1999.90;999.90;;;16.20;99.90;;;;;;5096745;28;20236;-80
2021/06/22 03:56:29;;;;;;;1999.90;999.90;;;16.10;99.90;;;;;;5097232;28;20629;-80
2021/06/22 03:58:56;;;;;;;1999.90;999.90;;;16.00;99.90;;;;;;5097168;28;20918;-80
2021/06/22 04:01:22;;;;;;;1999.90;999.90;;;16.10;99.90;;;;;;5096797;28;20207;-80
2021/06/22 04:03:48;;;;;;;1999.90;999.90;;;16.10;99.90;;;;;;5096694;28;20428;-80
2021/06/22 04:06:14;;;;;;;1999.90;999.90;;;16.00;99.90;;;;;;5096261;28;20643;-80
2021/06/22 04:08:41;;;;;;;1999.90;999.90;;;16.00;99.90;;;;;;5095082;28;20460;-79
2021/06/22 04:11:10;;;;;;;1999.90;999.90;;;16.10;99.90;;;;;;5096998;28;20419;-80
2021/06/22 04:13:36;;;;;;;1999.90;999.90;;;16.00;99.90;;;;;;5096330;28;20417;-80
2021/06/22 04:16:02;;;;;;;1999.90;999.90;;;15.90;99.90;;;;;;5097104;28;20965;-80
2021/06/22 04:18:28;;;;;;;1999.90;999.90;;;15.80;99.90;;;;;;5096564;28;20403;-80
2021/06/22 04:20:53;;;;;;;1999.90;999.90;;;15.80;99.90;;;;;;5095288;28;20414;-80
2021/06/22 04:23:19;;;;;;;1999.90;999.90;;;16.00;99.90;;;;;;5096570;28;20407;-81
2021/06/22 04:25:47;;;;;;;1999.90;999.90;;;15.90;99.90;;;;;;5096442;28;20167;-80
2021/06/22 04:28:13;;;;;;;1999.90;999.90;;;15.80;99.90;;;;;;5095508;28;20465;-80
2021/06/22 04:30:39;;;;;;;1999.90;999.90;;;15.90;99.90;;;;;;5096294;28;20788;-80
2021/06/22 04:33:06;;;;;;;1999.90;999.90;;;15.90;99.90;;;;;;5096439;28;20163;-80
2021/06/22 04:35:33;;;;;;;1999.90;999.90;;;15.90;99.90;;;;;;5096374;28;20414;-80
2021/06/22 04:37:59;;;;;;;1999.90;999.90;;;15.90;99.90;;;;;;5096390;28;20451;-80
2021/06/22 04:40:26;;;;;;;1999.90;999.90;;;16.00;99.90;;;;;;5096198;28;20510;-80
2021/06/22 04:42:51;;;;;;;1999.90;999.90;;;16.00;99.90;;;;;;5096327;28;20507;-80
2021/06/22 04:45:17;;;;;;;1999.90;999.90;;;16.00;99.90;;;;;;5095626;28;20479;-80
2021/06/22 04:47:43;;;;;;;1999.90;999.90;;;16.00;99.90;;;;;;5096720;28;20204;-80
2021/06/22 04:50:09;;;;;;;1999.90;999.90;;;16.00;99.90;;;;;;5096215;28;20718;-80
2021/06/22 04:52:36;;;;;;;1999.90;999.90;;;16.10;99.90;;;;;;5094997;28;20170;-80
2021/06/22 04:55:02;;;;;;;1999.90;999.90;;;16.00;99.90;;;;;;5096137;28;20399;-80
2021/06/22 04:57:28;;;;;;;1999.90;999.90;;;16.10;99.90;;;;;;5096766;28;20407;-80
2021/06/22 04:59:54;;;;;;;1999.90;999.90;;;16.00;99.90;;;;;;5097252;28;20858;-80
2021/06/22 05:02:20;;;;;;;1999.90;999.90;;;15.80;99.90;;;;;;5100511;28;20411;-80
2021/06/22 05:04:46;;;;;;;1999.90;999.90;;;15.80;99.90;;;;;;5098803;28;20271;-80
2021/06/22 05:07:12;;;;;;;1999.90;999.90;;;16.00;99.90;;;;;;5100571;28;20568;-80
2021/06/22 05:09:40;;;;;;;1999.90;999.90;;;16.00;99.90;;;;;;5099879;28;20531;-80
2021/06/22 05:12:06;;;;;;;1999.90;999.90;;;15.90;99.90;;;;;;5100145;28;20178;-80
2021/06/22 05:14:32;;;;;;;1999.90;999.90;;;15.70;99.90;;;;;;5098860;28;20778;-80
2021/06/22 05:16:58;;;;;;;1999.90;999.90;;;15.80;99.90;;;;;;5098663;28;20495;-80
2021/06/22 05:19:23;;;;;;;1999.90;999.90;;;15.90;99.90;;;;;;5098177;28;20230;-80
2021/06/22 05:21:49;;;;;;;1999.90;999.90;;;15.90;99.90;;;;;;5099921;28;20165;-80
2021/06/22 05:24:16;;;;;;;1999.90;999.90;;;16.00;99.90;;;;;;5099165;28;20235;-80
2021/06/22 05:26:42;;;;;;;1999.90;999.90;;;16.00;99.90;;;;;;5097455;28;20288;-79
2021/06/22 05:29:11;;;;;;;1999.90;999.90;;;16.00;99.90;;;;;;5099624;28;20474;-80
2021/06/22 05:31:37;;;;;;;1999.90;999.90;;;16.00;99.90;;;;;;5099905;28;20433;-80
2021/06/22 05:34:02;;;;;;;1999.90;999.90;;;15.80;99.90;;;;;;5099475;28;20396;-80
2021/06/22 05:36:28;;;;;;;1999.90;999.90;;;15.80;99.90;;;;;;5099369;28;20566;-79
2021/06/22 05:38:54;;;;;;;1999.90;999.90;;;15.90;99.90;;;;;;5098764;28;20194;-80
2021/06/22 05:41:19;;;;;;;1999.90;999.90;;;15.80;99.90;;;;;;5097748;28;20176;-80
2021/06/22 05:43:45;;;;;;;1999.90;999.90;;;15.60;99.90;;;;;;5097930;28;20183;-80
2021/06/22 05:46:11;;;;;;;1999.90;999.90;;;15.60;99.90;;;;;;5098284;28;20254;-80
2021/06/22 05:48:36;;;;;;;1999.90;999.90;;;15.70;99.90;;;;;;5097994;28;20209;-81
2021/06/22 05:51:02;;;;;;;1999.90;999.90;;;15.80;99.90;;;;;;5098766;28;20678;-81
2021/06/22 05:53:28;;;;;;;1999.90;999.90;;;15.90;99.90;;;;;;5099162;28;20231;-81
2021/06/22 05:55:53;;;;;;;1999.90;999.90;;;15.90;99.90;;;;;;5097866;28;20169;-81
2021/06/22 05:58:19;;;;;;;1999.90;999.90;;;15.90;99.90;;;;;;5099521;28;20171;-81
2021/06/22 06:00:44;;;;;;;1999.90;999.90;;;15.90;99.90;;;;;;5099611;28;20168;-80
2021/06/22 06:03:10;;;;;;;1999.90;999.90;;;15.90;99.90;;;;;;5099327;28;20193;-81
2021/06/22 06:05:36;;;;;;;1999.90;999.90;;;15.90;99.90;;;;;;5098342;28;20176;-82
2021/06/22 06:08:02;;;;;;;1999.90;999.90;;;15.80;99.90;;;;;;5100147;28;20234;-82
2021/06/22 06:10:28;;;;;;;1999.90;999.90;;;15.80;99.90;;;;;;5099722;28;20188;-82
2021/06/22 06:12:54;;;;;;;1999.90;999.90;;;15.80;99.90;;;;;;5099101;28;20416;-81
2021/06/22 06:15:22;;;;;;;1999.90;999.90;;;15.80;99.90;;;;;;5099837;28;20168;-82
2021/06/22 06:17:48;;;;;;;1999.90;999.90;;;15.80;99.90;;;;;;5100092;28;20204;-81
2021/06/22 06:20:15;;;;;;;1999.90;999.90;;;15.90;99.90;;;;;;5099071;28;20830;-82
2021/06/22 06:22:42;;;;;;;1999.90;999.90;;;15.90;99.90;;;;;;5099102;28;20552;-81
2021/06/22 06:25:10;;;;;;;1999.90;999.90;;;15.90;99.90;;;;;;5098359;28;20419;-81
2021/06/22 06:28:00;;;;;;;1999.90;999.90;;;15.90;99.90;;;;;;5097909;28;20458;-81
2021/06/22 06:30:29;;;;;;;1999.90;999.90;;;15.90;99.90;;;;;;5098271;28;20929;-82
2021/06/22 06:32:56;;;;;;;1999.90;999.90;;;16.00;99.90;;;;;;5099065;28;20393;-82
2021/06/22 06:35:23;;;;;;;1999.90;999.90;;;16.00;99.90;;;;;;5098568;28;20472;-82
2021/06/22 06:37:50;;;;;;;1999.90;999.90;;;16.00;99.90;;;;;;5099197;28;20415;-82
2021/06/22 06:40:16;;;;;;;1999.90;999.90;;;15.90;99.90;;;;;;5098624;28;20787;-81
2021/06/22 06:42:42;;;;;;;1999.90;999.90;;;15.90;99.90;;;;;;5098976;28;20956;-82
2021/06/22 06:45:12;;;;;;;1999.90;999.90;;;15.90;99.90;;;;;;5099248;28;20412;-83
2021/06/22 06:47:38;;;;;;;1999.90;999.90;;;15.80;99.90;;;;;;5099612;28;20281;-83
2021/06/22 06:50:08;;;;;;;1999.90;999.90;;;15.90;99.90;;;;;;5099158;28;20457;-83
2021/06/22 06:52:34;;;;;;;1999.90;999.90;;;15.90;99.90;;;;;;5099974;28;20223;-82
2021/06/22 06:54:59;;;;;;;1999.90;999.90;;;16.00;99.90;;;;;;5099438;28;20423;-82
2021/06/22 06:57:25;;;;;;;1999.90;999.90;;;15.90;99.90;;;;;;5098270;28;20621;-82
2021/06/22 06:59:51;;;;;;;1999.90;999.90;;;16.00;99.90;;;;;;5099335;28;20192;-82
2021/06/22 07:02:17;;;;;;;1999.90;999.90;;;16.20;99.90;;;;;;5100346;28;20194;-82
2021/06/22 07:04:42;;;;;;;1999.90;999.90;;;16.40;99.90;;;;;;5099232;28;20242;-82
2021/06/22 07:07:08;;;;;;;1999.90;999.90;;;16.60;99.90;;;;;;5095463;28;20673;-82
2021/06/22 07:09:34;;;;;;;1999.90;999.90;;;16.70;99.90;;;;;;5098588;28;20183;-82
2021/06/22 07:12:03;;;;;;;1999.90;999.90;;;16.80;99.90;;;;;;5098086;28;20167;-81
2021/06/22 07:14:28;;;;;;;1999.90;999.90;;;16.90;99.90;;;;;;5099080;28;20166;-82
2021/06/22 07:16:54;;;;;;;1999.90;999.90;;;16.90;99.90;;;;;;5098712;28;20405;-80
2021/06/22 07:19:20;;;;;;;1999.90;999.90;;;16.80;99.90;;;;;;5097647;28;20185;-80
2021/06/22 07:21:46;;;;;;;1999.90;999.90;;;16.80;99.90;;;;;;5097521;28;20171;-81
2021/06/22 07:24:12;;;;;;;1999.90;999.90;;;16.80;99.90;;;;;;5096192;28;20213;-81
2021/06/22 07:26:39;;;;;;;1999.90;999.90;;;16.90;99.90;;;;;;5098565;28;20401;-82
2021/06/22 07:29:06;;;;;;;1999.90;999.90;;;17.00;99.90;;;;;;5096632;28;20219;-80
2021/06/22 07:31:33;;;;;;;1999.90;999.90;;;17.10;99.90;;;;;;5098518;28;20401;-81
2021/06/22 07:33:59;;;;;;;1999.90;999.90;;;17.10;99.90;;;;;;5098473;28;20394;-81
2021/06/22 07:36:24;;;;;;;1999.90;999.90;;;17.10;99.90;;;;;;5097639;28;20409;-81
2021/06/22 07:38:50;;;;;;;1999.90;999.90;;;17.10;99.90;;;;;;5098741;28;20423;-81
2021/06/22 07:41:17;;;;;;;1999.90;999.90;;;17.00;99.90;;;;;;5098568;28;20244;-81
2021/06/22 07:43:46;;;;;;;1999.90;999.90;;;17.10;99.90;;;;;;5099067;28;20144;-81
2021/06/22 07:46:12;;;;;;;1999.90;999.90;;;17.20;99.90;;;;;;5098105;28;20468;-80
2021/06/22 07:48:38;;;;;;;1999.90;999.90;;;17.30;99.90;;;;;;5098911;28;20456;-81
2021/06/22 07:51:04;;;;;;;1999.90;999.90;;;17.40;99.90;;;;;;5098916;28;20163;-80
2021/06/22 07:53:29;;;;;;;1999.90;999.90;;;17.30;99.90;;;;;;5098508;28;20401;-81
2021/06/22 07:55:55;;;;;;;1999.90;999.90;;;17.40;99.90;;;;;;5098233;28;20439;-80
2021/06/22 07:58:21;;;;;;;1999.90;999.90;;;17.40;99.90;;;;;;5098008;28;20229;-80
2021/06/22 08:00:51;;;;;;;1999.90;999.90;;;17.50;99.90;;;;;;5098314;28;20167;-80
2021/06/22 08:05:52;;;;;;;1999.90;999.90;;;17.30;99.90;;;;;;5060708;22;20492;-85
2021/06/22 08:08:20;;;;;;;1999.90;999.90;;;17.30;99.90;;;;;;5093304;28;20993;-85
2021/06/22 08:10:57;;;;;;;1999.90;999.90;;;17.20;99.90;;;;;;5092093;28;20419;-85
2021/06/22 08:13:24;;;;;;;1999.90;999.90;;;17.10;99.90;;;;;;5091800;28;20516;-85
2021/06/22 08:15:51;;;;;;;1999.90;999.90;;;16.90;99.90;;;;;;5091718;28;20417;-85
2021/06/22 08:18:17;;;;;;;1999.90;999.90;;;16.80;99.90;;;;;;5093272;28;20468;-85
2021/06/22 08:20:47;;;;;;;1999.90;999.90;;;16.90;99.90;;;;;;5092129;28;20467;-85
2021/06/22 08:23:13;;;;;;;1999.90;999.90;;;16.80;99.90;;;;;;5092357;28;20421;-85
2021/06/22 08:25:39;;;;;;;1999.90;999.90;;;16.80;99.90;;;;;;5093503;28;20396;-85
2021/06/22 08:28:11;;;;;;;1999.90;999.90;;;16.80;99.90;;;;;;5093290;28;20439;-85
2021/06/22 08:30:37;;;;;;;1999.90;999.90;;;16.80;99.90;;;;;;5093453;28;20409;-85
2021/06/22 08:33:04;;;;;;;1999.90;999.90;;;16.80;99.90;;;;;;5093050;28;20409;-85
2021/06/22 08:35:35;;;;;;;1999.90;999.90;;;16.80;99.90;;;;;;5094260;28;20409;-85
2021/06/22 08:38:02;;;;;;;1999.90;999.90;;;16.80;99.90;;;;;;5097753;28;20491;-86
2021/06/22 08:40:38;;;;;;;1999.90;999.90;;;16.80;99.90;;;;;;5097256;28;20424;-85
2021/06/22 08:43:04;;;;;;;1999.90;999.90;;;16.70;99.90;;;;;;5097628;28;20384;-85
2021/06/22 08:45:30;;;;;;;1999.90;999.90;;;16.70;99.90;;;;;;5097223;28;20480;-85
2021/06/22 08:47:57;;;;;;;1999.90;999.90;;;16.70;99.90;;;;;;5095819;28;20480;-85
2021/06/22 08:50:28;;;;;;;1999.90;999.90;;;16.60;99.90;;;;;;5097102;28;20506;-85
2021/06/22 08:53:06;;;;;;;1999.90;999.90;;;16.60;99.90;;;;;;5097738;28;20729;-86
2021/06/22 08:55:47;;;;;;;1999.90;999.90;;;16.70;99.90;;;;;;5097305;28;20427;-85
2021/06/22 08:58:22;;;;;;;1999.90;999.90;;;16.60;99.90;;;;;;5096985;28;20406;-86
2021/06/22 09:01:47;;;;;;;;;;;;;;;;;;;;;
2021/06/22 09:04:19;;;;;;;1999.90;999.90;;;16.90;99.90;;;;;;5096395;28;20413;-85
2021/06/22 09:06:45;;;;;;;1999.90;999.90;;;16.90;99.90;;;;;;5096807;28;20431;-86
2021/06/22 09:09:14;;;;;;;1999.90;999.90;;;16.90;99.90;;;;;;5096924;28;20981;-85
2021/06/22 09:12:09;;;;;;;1999.90;999.90;;;16.80;99.90;;;;;;5095567;28;20231;-85
2021/06/22 09:14:39;;;;;;;1999.90;999.90;;;16.90;99.90;;;;;;5096778;28;20373;-86
2021/06/22 09:17:08;;;;;;;1999.90;999.90;;;16.90;99.90;;;;;;5095468;28;20413;-86
2021/06/22 09:19:51;;;;;;;1999.90;999.90;;;17.00;99.90;;;;;;5095980;28;20517;-87
2021/06/22 09:22:24;;;;;;;1999.90;999.90;;;17.10;99.90;;;;;;5095741;28;20407;-86
2021/06/22 09:25:08;;;;;;;1999.90;999.90;;;17.20;99.90;;;;;;5097731;28;20384;-86
2021/06/22 09:27:54;;;;;;;1999.90;999.90;;;17.20;99.90;;;;;;5096449;28;20808;-86
2021/06/22 09:30:35;;;;;;;1999.90;999.90;;;17.30;99.90;;;;;;5096588;28;20417;-86
2021/06/22 09:33:22;;;;;;;1999.90;999.90;;;17.20;99.90;;;;;;5094930;28;20412;-86
2021/06/22 09:36:14;;;;;;;1999.90;999.90;;;17.30;99.90;;;;;;5095154;28;20390;-86
2021/06/22 09:39:12;;;;;;;1999.90;999.90;;;17.40;99.90;;;;;;5094729;28;20436;-86
2021/06/22 09:41:43;;;;;;;1999.90;999.90;;;17.40;99.90;;;;;;5078531;28;20417;-86
2021/06/22 09:44:17;;;;;;;1999.90;999.90;;;17.40;99.90;;;;;;5096229;28;20435;-85
2021/06/22 09:46:50;;;;;;;1999.90;999.90;;;17.40;99.90;;;;;;5094557;28;20413;-85
2021/06/22 09:49:22;;;;;;;1999.90;999.90;;;17.50;99.90;;;;;;5095051;28;20425;-86
2021/06/22 09:52:08;;;;;;;1999.90;999.90;;;17.50;99.90;;;;;;5094904;28;20622;-86
2021/06/22 09:54:44;;;;;;;1999.90;999.90;;;17.60;99.90;;;;;;5096382;28;20430;-85
2021/06/22 09:57:15;;;;;;;1999.90;999.90;;;17.70;99.90;;;;;;5096333;28;20480;-86
2021/06/22 09:59:49;;;;;;;1999.90;999.90;;;17.70;99.90;;;;;;5095995;28;20421;-86
2021/06/22 10:02:15;;;;;;;1999.90;999.90;;;17.70;99.90;;;;;;5094637;28;20500;-85
2021/06/22 10:04:44;;;;;;;1999.90;999.90;;;17.70;99.90;;;;;;5096066;28;20425;-86
2021/06/22 10:07:20;;;;;;;1999.90;999.90;;;17.80;99.90;;;;;;5094425;28;20437;-86
2021/06/22 10:09:55;;;;;;;1999.90;999.90;;;17.90;99.90;;;;;;5094579;28;20477;-86
2021/06/22 10:12:22;;;;;;;1999.90;999.90;;;17.90;99.90;;;;;;5094891;28;20431;-85
2021/06/22 10:14:54;;;;;;;1999.90;999.90;;;17.80;99.90;;;;;;5095484;28;20398;-86
2021/06/22 10:17:25;;;;;;;1999.90;999.90;;;17.70;99.90;;;;;;5095945;28;20392;-88
2021/06/22 10:19:57;;;;;;;1999.90;999.90;;;17.80;99.90;;;;;;5094840;28;20436;-88
2021/06/22 10:22:27;;;;;;;1999.90;999.90;;;17.80;99.90;;;;;;5094536;28;20412;-88
2021/06/22 10:24:55;;;;;;;1999.90;999.90;;;17.40;99.90;;;;;;5096110;28;20413;-88
2021/06/22 10:27:27;;;;;;;1999.90;999.90;;;17.30;99.90;;;;;;5095950;28;20437;-89
2021/06/22 10:29:59;;;;;;;1999.90;999.90;;;17.20;99.90;;;;;;5095102;28;20948;-89
2021/06/22 10:32:26;;;;;;;1999.90;999.90;;;17.10;99.90;;;;;;5094673;28;20396;-88
2021/06/22 10:34:55;;;;;;;1999.90;999.90;;;17.30;99.90;;;;;;5095356;28;20506;-86
2021/06/22 10:37:41;;;;;;;1999.90;999.90;;;17.50;99.90;;;;;;5095475;28;20424;-86
2021/06/22 10:40:23;;;;;;;1999.90;999.90;;;17.80;99.90;;;;;;5094204;28;20429;-87
2021/06/22 10:43:00;;;;;;;1999.90;999.90;;;17.90;99.90;;;;;;5094597;28;20445;-86
2021/06/22 10:45:29;;;;;;;1999.90;999.90;;;18.10;99.90;;;;;;5095170;28;20464;-86
2021/06/22 10:47:58;;;;;;;1999.90;999.90;;;18.00;99.90;;;;;;5094163;28;20468;-86
2021/06/22 10:50:27;;;;;;;1999.90;999.90;;;17.80;99.90;;;;;;5095105;28;20449;-86
2021/06/22 10:52:56;;;;;;;1999.90;999.90;;;17.90;99.90;;;;;;5094038;28;20407;-86
2021/06/22 10:55:21;;;;;;;1999.90;999.90;;;18.10;99.90;;;;;;5095026;28;20436;-87
2021/06/22 10:57:56;;;;;;;1999.90;999.90;;;18.20;99.90;;;;;;5093524;28;20944;-87
2021/06/22 11:00:29;;;;;;;1999.90;999.90;;;18.20;99.90;;;;;;5094754;28;20178;-90
2021/06/22 11:03:19;;;;;;;1999.90;999.90;;;18.20;99.90;;;;;;5095337;28;20427;-89
2021/06/22 11:06:05;;;;;;;1999.90;999.90;;;18.00;99.90;;;;;;5095441;28;20494;-89
2021/06/22 11:08:56;;;;;;;1999.90;999.90;;;17.80;99.90;;;;;;5043859;28;20464;-89
2021/06/22 11:11:25;;;;;;;1999.90;999.90;;;18.10;99.90;;;;;;5095480;28;20449;-89
2021/06/22 11:14:02;;;;;;;1999.90;999.90;;;18.30;99.90;;;;;;5093972;28;20402;-88
2021/06/22 11:16:36;;;;;;;1999.90;999.90;;;18.40;99.90;;;;;;5094921;28;20749;-87
2021/06/22 11:19:22;;;;;;;1999.90;999.90;;;18.40;99.90;;;;;;5094422;28;20443;-89
2021/06/22 11:21:51;;;;;;;1999.90;999.90;;;18.30;99.90;;;;;;5093676;28;20410;-88
2021/06/22 11:24:18;;;;;;;1999.90;999.90;;;18.20;99.90;;;;;;5094126;28;20417;-88
2021/06/22 11:27:04;;;;;;;1999.90;999.90;;;18.00;99.90;;;;;;5094935;28;20432;-88
2021/06/22 11:29:35;;;;;;;1999.90;999.90;;;18.10;99.90;;;;;;5095133;28;20908;-88
2021/06/22 11:32:14;;;;;;;1999.90;999.90;;;18.10;99.90;;;;;;5094681;28;20408;-88
2021/06/22 11:34:55;;;;;;;1999.90;999.90;;;18.20;99.90;;;;;;5094612;28;20417;-88
2021/06/22 11:37:30;;;;;;;1999.90;999.90;;;18.30;99.90;;;;;;5095259;28;20757;-88
2021/06/22 11:40:08;;;;;;;1999.90;999.90;;;18.40;99.90;;;;;;5094785;28;20412;-88
2021/06/22 11:42:38;;;;;;;1999.90;999.90;;;18.40;99.90;;;;;;5093497;28;20433;-88
2021/06/22 11:45:19;;;;;;;1999.90;999.90;;;18.20;99.90;;;;;;5092954;28;20405;-88
2021/06/22 11:48:10;;;;;;;1999.90;999.90;;;18.30;99.90;;;;;;5092874;28;20528;-88
2021/06/22 11:50:57;;;;;;;1999.90;999.90;;;18.40;99.90;;;;;;5094316;28;21066;-88
2021/06/22 11:53:35;;;;;;;1999.90;999.90;;;18.60;99.90;;;;;;5093739;28;20381;-88
2021/06/22 11:56:18;;;;;;;1999.90;999.90;;;18.70;99.90;;;;;;5094175;28;20385;-89
2021/06/22 11:59:03;;;;;;;;;;;;;;;;;;;;;
2021/06/22 12:01:49;;;;;;;1999.90;999.90;;;18.40;99.90;;;;;;5094826;28;20406;-89
2021/06/22 12:04:24;;;;;;;1999.90;999.90;;;18.50;99.90;;;;;;5093753;28;20796;-88
2021/06/22 12:07:07;;;;;;;1999.90;999.90;;;18.40;99.90;;;;;;5093381;28;20433;-88
2021/06/22 12:09:56;;;;;;;1999.90;999.90;;;18.20;99.90;;;;;;5092251;28;20437;-88
2021/06/22 12:12:24;;;;;;;1999.90;999.90;;;18.20;99.90;;;;;;5093619;28;20428;-88
2021/06/22 12:14:56;;;;;;;1999.90;999.90;;;18.20;99.90;;;;;;5093142;28;20447;-88
2021/06/22 12:17:28;;;;;;;1999.90;999.90;;;17.90;99.90;;;;;;5092587;28;20408;-89
2021/06/22 12:20:54;;;;;;;1999.90;999.90;;;17.80;99.90;;;;;;5092569;28;20567;-89
2021/06/22 12:23:28;;;;;;;1999.90;999.90;;;17.90;99.90;;;;;;5054098;28;20445;-88
2021/06/22 12:25:57;;;;;;;1999.90;999.90;;;18.10;99.90;;;;;;5093494;28;20393;-88
2021/06/22 12:28:34;;;;;;;1999.90;999.90;;;18.20;99.90;;;;;;5094359;28;20449;-88
2021/06/22 12:31:02;;;;;;;1999.90;999.90;;;18.30;99.90;;;;;;5093889;28;20409;-88
2021/06/22 12:33:48;;;;;;;1999.90;999.90;;;18.40;99.90;;;;;;5094486;28;20404;-88
2021/06/22 12:36:20;;;;;;;1999.90;999.90;;;18.40;99.90;;;;;;5093966;28;20412;-88
2021/06/22 12:38:56;;;;;;;1999.90;999.90;;;18.30;99.90;;;;;;5093432;28;20421;-88
2021/06/22 12:41:30;;;;;;;1999.90;999.90;;;18.40;99.90;;;;;;5093598;28;20740;-88
2021/06/22 12:43:56;;;;;;;1999.90;999.90;;;18.30;99.90;;;;;;5093871;28;20417;-89
2021/06/22 12:46:28;;;;;;;1999.90;999.90;;;18.40;99.90;;;;;;5092066;28;20490;-88
2021/06/22 12:49:02;;;;;;;1999.90;999.90;;;18.40;99.90;;;;;;5094171;28;20478;-88
2021/06/22 12:51:47;;;;;;;1999.90;999.90;;;18.30;99.90;;;;;;5093576;28;20745;-86
2021/06/22 12:54:19;;;;;;;1999.90;999.90;;;18.10;99.90;;;;;;5093912;28;20394;-87
2021/06/22 12:57:21;;;;;;;1999.90;999.90;;;18.30;99.90;;;;;;5092103;28;20401;-87
2021/06/22 12:59:56;;;;;;;1999.90;999.90;;;18.30;99.90;;;;;;5091332;28;20425;-87
2021/06/22 13:02:24;;;;;;;1999.90;999.90;;;18.20;99.90;;;;;;5091834;28;20401;-88
2021/06/22 13:04:54;;;;;;;1999.90;999.90;;;18.20;99.90;;;;;;5091790;28;20496;-86
2021/06/22 13:07:24;;;;;;;1999.90;999.90;;;18.20;99.90;;;;;;5092443;28;20445;-85
2021/06/22 13:09:53;;;;;;;1999.90;999.90;;;18.30;99.90;;;;;;5091641;28;20417;-85
2021/06/22 13:12:28;;;;;;;1999.90;999.90;;;18.30;99.90;;;;;;5091596;28;20420;-85
2021/06/22 13:14:56;;;;;;;1999.90;999.90;;;18.20;99.90;;;;;;5091741;28;20495;-85
2021/06/22 13:17:29;;;;;;;1999.90;999.90;;;18.20;99.90;;;;;;5093270;28;20405;-84
2021/06/22 13:20:05;;;;;;;1999.90;999.90;;;18.10;99.90;;;;;;5091872;28;20478;-84
2021/06/22 13:22:37;;;;;;;1999.90;999.90;;;18.00;99.90;;;;;;5098204;28;20431;-83
2021/06/22 13:25:06;;;;;;;1999.90;999.90;;;18.00;99.90;;;;;;5097618;28;20844;-83